Time;durP1;ratioP1;P1;durP2;ratioP2;P2;SDS_P1;SDS_P2;PMS_P1;PMS_P2;Temp;Humidity;BMP_temperature;BMP_pressure;BME280_temperature;BME280_humidity;BME280_pressure;Samples;Min_cycle;Max_cycle;Signal;HPM_P1;HPM_P2
2021/04/23 00:00:22;;;;;;;22.73;18.13;;;15.40;68.40;;;;;;5024139;28;20502;-71
2021/04/23 00:02:47;;;;;;;22.67;19.00;;;15.30;68.20;;;;;;5012763;28;20102;-71
2021/04/23 00:05:14;;;;;;;26.77;20.52;;;15.30;68.50;;;;;;5011110;28;20120;-72
2021/04/23 00:07:40;;;;;;;25.95;19.95;;;15.30;68.50;;;;;;5012775;28;20022;-75
2021/04/23 00:10:11;;;;;;;24.85;20.40;;;15.30;68.60;;;;;;5016775;28;20079;-74
2021/04/23 00:12:37;;;;;;;28.00;19.88;;;15.30;68.80;;;;;;5035372;28;20067;-66
2021/04/23 00:15:07;;;;;;;24.88;20.38;;;15.30;68.60;;;;;;5036092;28;20032;-68
2021/04/23 00:17:33;;;;;;;28.77;20.70;;;15.30;68.80;;;;;;5035760;28;20025;-68
2021/04/23 00:19:59;;;;;;;26.80;21.65;;;15.30;68.80;;;;;;5035309;28;20447;-71
2021/04/23 00:22:25;;;;;;;26.33;21.25;;;15.30;68.80;;;;;;5035633;28;20029;-70
2021/04/23 00:24:50;;;;;;;26.02;20.13;;;15.30;68.80;;;;;;5036018;28;20057;-67
2021/04/23 00:27:16;;;;;;;25.13;20.50;;;15.30;69.20;;;;;;5035767;28;20123;-67
2021/04/23 00:29:42;;;;;;;26.98;20.73;;;15.30;69.30;;;;;;5035877;28;20475;-69
2021/04/23 00:32:08;;;;;;;28.75;20.95;;;15.20;69.10;;;;;;5020043;28;20486;-69
2021/04/23 00:34:34;;;;;;;23.20;20.10;;;15.20;69.40;;;;;;5015966;28;20103;-67
2021/04/23 00:37:00;;;;;;;24.33;19.33;;;15.20;69.40;;;;;;5016103;28;20061;-69
2021/04/23 00:39:26;;;;;;;24.58;19.20;;;15.10;69.70;;;;;;5016004;28;20026;-67
2021/04/23 00:41:52;;;;;;;24.92;19.70;;;15.10;70.30;;;;;;5025896;28;20099;-70
2021/04/23 00:44:18;;;;;;;24.63;20.50;;;15.10;70.40;;;;;;5035704;28;20021;-66
2021/04/23 00:46:44;;;;;;;25.08;19.48;;;15.00;70.90;;;;;;5035672;28;20494;-66
2021/04/23 00:49:11;;;;;;;24.35;19.55;;;14.90;70.60;;;;;;5035474;28;20029;-66
2021/04/23 00:51:52;;;;;;;25.30;19.65;;;14.90;71.20;;;;;;5029567;28;20037;-67
2021/04/23 00:54:19;;;;;;;24.45;18.30;;;14.90;71.80;;;;;;5015667;28;20021;-69
2021/04/23 00:56:45;;;;;;;26.13;19.30;;;14.80;71.10;;;;;;5015374;28;20029;-68
2021/04/23 00:59:12;;;;;;;23.08;19.83;;;14.80;71.70;;;;;;5015198;28;20586;-68
2021/04/23 01:01:50;;;;;;;24.08;18.73;;;14.80;71.30;;;;;;5017559;28;20120;-68
2021/04/23 01:04:19;;;;;;;24.88;20.02;;;14.60;71.90;;;;;;5035333;28;20446;-67
2021/04/23 01:06:45;;;;;;;23.25;19.50;;;14.40;71.50;;;;;;5034973;28;20017;-68
2021/04/23 01:09:17;;;;;;;23.70;19.65;;;14.40;72.10;;;;;;5035169;28;20052;-67
2021/04/23 01:11:43;;;;;;;37.58;21.77;;;14.30;71.90;;;;;;5029233;28;20042;-65
2021/04/23 01:14:10;;;;;;;25.02;20.80;;;14.20;72.10;;;;;;5014996;28;20034;-70
2021/04/23 01:16:37;;;;;;;26.17;18.52;;;14.20;72.20;;;;;;5015122;28;20030;-66
2021/04/23 01:19:06;;;;;;;24.67;19.42;;;14.10;72.40;;;;;;5015153;28;20362;-68
2021/04/23 01:21:33;;;;;;;24.52;20.02;;;14.10;73.10;;;;;;5016832;28;20117;-67
2021/04/23 01:24:01;;;;;;;26.42;19.15;;;14.10;72.60;;;;;;5033595;28;20042;-67
2021/04/23 01:26:33;;;;;;;25.58;20.42;;;14.10;72.30;;;;;;5034668;28;20107;-67
2021/04/23 01:29:00;;;;;;;23.50;18.48;;;14.00;72.70;;;;;;5034495;28;20049;-66
2021/04/23 01:31:29;;;;;;;25.58;19.90;;;13.90;72.70;;;;;;5034391;28;20083;-69
2021/04/23 01:34:00;;;;;;;25.92;20.52;;;13.90;72.70;;;;;;5015201;28;20032;-69
2021/04/23 01:36:26;;;;;;;28.02;19.73;;;13.80;72.90;;;;;;5014798;28;20025;-67
2021/04/23 01:38:53;;;;;;;25.73;18.70;;;13.80;73.00;;;;;;5014709;28;20026;-69
2021/04/23 01:41:20;;;;;;;22.25;19.02;;;13.80;73.00;;;;;;5014265;28;20049;-69
2021/04/23 01:43:47;;;;;;;22.48;19.38;;;13.90;72.90;;;;;;5029379;28;20034;-72
2021/04/23 01:46:13;;;;;;;23.92;20.17;;;13.80;72.70;;;;;;5034361;28;20025;-66
2021/04/23 01:48:39;;;;;;;23.75;19.85;;;13.80;72.90;;;;;;5034278;28;20370;-69
2021/04/23 01:51:11;;;;;;;23.08;19.50;;;13.70;73.20;;;;;;5034049;28;20044;-70
2021/04/23 01:53:39;;;;;;;25.02;20.67;;;13.70;73.10;;;;;;5022508;28;20041;-67
2021/04/23 01:56:06;;;;;;;25.73;20.95;;;13.60;73.40;;;;;;5014318;28;20391;-69
2021/04/23 01:58:35;;;;;;;24.10;19.98;;;13.50;73.70;;;;;;5014155;28;20025;-68
2021/04/23 02:01:00;;;;;;;23.77;19.95;;;13.50;73.70;;;;;;5014094;28;20053;-68
2021/04/23 02:03:26;;;;;;;27.25;21.38;;;13.60;73.40;;;;;;5020854;28;20021;-70
2021/04/23 02:05:54;;;;;;;26.13;20.88;;;13.70;73.40;;;;;;5033985;28;20039;-69
2021/04/23 02:08:22;;;;;;;24.85;20.42;;;13.60;73.40;;;;;;5034247;28;20072;-71
2021/04/23 02:10:51;;;;;;;25.45;20.67;;;13.60;73.50;;;;;;5033828;28;20117;-68
2021/04/23 02:13:23;;;;;;;23.73;19.73;;;13.60;73.50;;;;;;5030844;28;20045;-72
2021/04/23 02:15:49;;;;;;;25.75;21.00;;;13.50;73.70;;;;;;5014130;28;20029;-68
2021/04/23 02:18:15;;;;;;;25.73;20.63;;;13.50;73.70;;;;;;5014110;28;20487;-68
2021/04/23 02:20:41;;;;;;;25.35;20.48;;;13.40;73.90;;;;;;5013532;28;20041;-69
2021/04/23 02:23:09;;;;;;;27.60;21.45;;;13.30;73.90;;;;;;5013667;28;20042;-72
2021/04/23 02:25:36;;;;;;;25.95;21.10;;;13.30;74.10;;;;;;5032278;28;20305;-68
2021/04/23 02:28:04;;;;;;;26.45;20.23;;;13.30;74.00;;;;;;5033359;28;20059;-68
2021/04/23 02:30:34;;;;;;;22.98;20.02;;;13.30;74.40;;;;;;5033669;28;20425;-70
2021/04/23 02:33:00;;;;;;;26.02;19.40;;;13.20;74.30;;;;;;5033581;28;20037;-72
2021/04/23 02:35:27;;;;;;;21.50;19.08;;;13.20;74.80;;;;;;5018481;28;20045;-68
2021/04/23 02:37:54;;;;;;;19.90;17.23;;;13.30;74.50;;;;;;5013764;28;20530;-68
2021/04/23 02:40:24;;;;;;;23.00;17.65;;;13.20;74.30;;;;;;5013542;28;20161;-67
2021/04/23 02:42:52;;;;;;;22.10;16.85;;;13.20;74.80;;;;;;5013355;28;20418;-68
2021/04/23 02:45:21;;;;;;;23.40;17.58;;;13.20;74.60;;;;;;5023975;28;20040;-70
2021/04/23 02:47:49;;;;;;;23.02;15.63;;;13.10;74.50;;;;;;5032327;28;20017;-69
2021/04/23 02:50:17;;;;;;;20.45;16.38;;;13.10;74.40;;;;;;5033580;28;20071;-68
2021/04/23 02:52:44;;;;;;;18.67;15.40;;;13.00;74.60;;;;;;5033503;28;20021;-67
2021/04/23 02:55:12;;;;;;;21.45;14.93;;;13.00;74.50;;;;;;5026043;28;20030;-70
2021/04/23 02:57:37;;;;;;;17.17;14.57;;;13.00;74.80;;;;;;5013616;28;20034;-69
2021/04/23 03:00:11;;;;;;;18.52;14.48;;;12.90;74.80;;;;;;5013440;28;20077;-65
2021/04/23 03:02:37;;;;;;;;;;;13.00;74.50;;;;;;5013791;28;20026;-70
2021/04/23 03:05:04;;;;;;;19.55;14.20;;;13.10;75.40;;;;;;5015923;28;19917;-68
2021/04/23 03:07:30;;;;;;;18.10;13.73;;;13.20;74.00;;;;;;5033172;28;20431;-67
2021/04/23 03:09:55;;;;;;;17.00;14.18;;;13.10;73.60;;;;;;5033095;28;20029;-67
2021/04/23 03:12:21;;;;;;;16.80;12.98;;;13.10;73.60;;;;;;5031804;28;20036;-70
2021/04/23 03:14:47;;;;;;;18.67;13.45;;;13.10;73.70;;;;;;5033197;28;20080;-69
2021/04/23 03:17:12;;;;;;;15.30;12.70;;;13.10;73.30;;;;;;5014839;28;20513;-71
2021/04/23 03:19:38;;;;;;;16.70;13.30;;;13.20;73.50;;;;;;5013263;28;20026;-69
2021/04/23 03:22:04;;;;;;;15.40;12.43;;;13.20;73.00;;;;;;5012977;28;20091;-66
2021/04/23 03:24:29;;;;;;;15.63;12.15;;;13.10;73.20;;;;;;5013214;28;20025;-67
2021/04/23 03:26:55;;;;;;;18.20;11.88;;;13.20;73.20;;;;;;5025413;28;20038;-69
2021/04/23 03:29:21;;;;;;;14.00;11.63;;;13.20;72.80;;;;;;5031497;28;20116;-69
2021/04/23 03:31:48;;;;;;;16.27;12.30;;;13.30;72.60;;;;;;5032661;28;20099;-68
2021/04/23 03:34:14;;;;;;;14.88;12.45;;;13.30;72.50;;;;;;5032647;28;20038;-68
2021/04/23 03:36:40;;;;;;;14.52;12.35;;;13.20;72.70;;;;;;5025087;28;20030;-68
2021/04/23 03:39:09;;;;;;;17.25;12.40;;;13.20;72.50;;;;;;5012908;28;20026;-67
2021/04/23 03:41:35;;;;;;;14.52;12.13;;;13.20;72.40;;;;;;5012897;28;20435;-69
2021/04/23 03:44:02;;;;;;;16.00;11.73;;;13.20;72.60;;;;;;5012796;28;20018;-67
2021/04/23 03:46:28;;;;;;;14.18;12.30;;;13.30;72.50;;;;;;5017055;28;20030;-67
2021/04/23 03:48:54;;;;;;;13.80;11.70;;;13.30;72.00;;;;;;5036866;28;20030;-67
2021/04/23 03:51:22;;;;;;;16.10;12.82;;;13.30;72.30;;;;;;5035098;28;20021;-68
2021/04/23 03:53:48;;;;;;;15.85;12.85;;;13.30;72.00;;;;;;5036296;28;20017;-66
2021/04/23 03:56:15;;;;;;;19.08;13.15;;;13.30;71.90;;;;;;5036297;28;20040;-66
2021/04/23 03:58:42;;;;;;;14.85;12.82;;;13.20;72.00;;;;;;5016425;28;20118;-67
2021/04/23 04:01:11;;;;;;;17.02;14.38;;;13.30;72.20;;;;;;5016427;28;20077;-67
2021/04/23 04:03:37;;;;;;;17.02;13.45;;;13.30;71.90;;;;;;5016590;28;20427;-67
2021/04/23 04:06:04;;;;;;;16.20;13.55;;;13.30;71.90;;;;;;5016366;28;20034;-70
2021/04/23 04:08:30;;;;;;;16.30;13.80;;;13.20;71.90;;;;;;5030427;28;20028;-68
2021/04/23 04:10:57;;;;;;;16.92;13.63;;;13.10;72.10;;;;;;5036057;28;20160;-69
2021/04/23 04:13:23;;;;;;;19.20;14.25;;;13.00;72.60;;;;;;5016707;28;20037;-71
2021/04/23 04:15:49;;;;;;;21.83;15.32;;;13.10;72.60;;;;;;5016384;28;20497;-68
2021/04/23 04:18:16;;;;;;;19.15;15.02;;;13.00;72.40;;;;;;5016548;28;20052;-66
2021/04/23 04:20:46;;;;;;;18.25;14.85;;;13.00;72.70;;;;;;5033056;28;20368;-68
2021/04/23 04:23:14;;;;;;;18.17;14.75;;;12.90;72.50;;;;;;5020219;28;20399;-67
2021/04/23 04:25:42;;;;;;;18.52;14.18;;;12.90;72.80;;;;;;5016061;28;20033;-66
2021/04/23 04:28:09;;;;;;;21.50;15.27;;;12.90;72.90;;;;;;5016270;28;20048;-70
2021/04/23 04:30:35;;;;;;;18.85;15.38;;;13.00;72.70;;;;;;5015916;28;20026;-72
2021/04/23 04:33:01;;;;;;;19.45;15.23;;;13.10;72.60;;;;;;5025674;28;20072;-70
2021/04/23 04:35:28;;;;;;;19.48;15.32;;;13.20;72.40;;;;;;5035818;28;20128;-69
2021/04/23 04:37:55;;;;;;;17.70;15.13;;;13.10;72.30;;;;;;5035739;28;20099;-71
2021/04/23 04:40:22;;;;;;;21.13;15.02;;;13.20;72.20;;;;;;5035589;28;20095;-68
2021/04/23 04:42:48;;;;;;;21.25;14.60;;;13.10;72.30;;;;;;5030507;28;20379;-71
2021/04/23 04:45:17;;;;;;;20.17;15.70;;;13.10;72.20;;;;;;5015947;28;20030;-70
2021/04/23 04:47:43;;;;;;;18.63;15.10;;;13.10;72.40;;;;;;5016215;28;20061;-71
2021/04/23 04:50:13;;;;;;;19.52;16.23;;;13.10;72.50;;;;;;5015830;28;20053;-68
2021/04/23 04:52:39;;;;;;;20.05;15.43;;;13.10;72.00;;;;;;5016450;28;20026;-68
2021/04/23 04:55:07;;;;;;;23.48;16.35;;;13.10;72.20;;;;;;5035337;28;20033;-71
2021/04/23 04:57:35;;;;;;;21.08;16.77;;;13.10;72.50;;;;;;5034370;28;20021;-74
2021/04/23 05:00:00;;;;;;;19.55;16.10;;;13.10;72.40;;;;;;5035148;28;20486;-67
2021/04/23 05:02:26;;;;;;;22.75;16.58;;;13.10;72.40;;;;;;5033846;28;20029;-71
2021/04/23 05:04:52;;;;;;;22.73;16.75;;;13.20;72.40;;;;;;5018414;28;20033;-67
2021/04/23 05:07:18;;;;;;;20.80;15.05;;;13.20;72.20;;;;;;5026273;28;20060;-67
2021/04/23 05:09:43;;;;;;;19.10;15.45;;;13.20;72.10;;;;;;5034824;28;20490;-70
2021/04/23 05:12:09;;;;;;;22.40;15.70;;;13.20;71.90;;;;;;5033454;28;20033;-69
2021/04/23 05:14:35;;;;;;;21.13;16.10;;;13.20;71.80;;;;;;5034976;28;20026;-69
2021/04/23 05:17:01;;;;;;;22.10;15.63;;;13.20;72.00;;;;;;5029340;28;20022;-69
2021/04/23 05:19:26;;;;;;;21.33;16.58;;;13.20;72.00;;;;;;5014937;28;20029;-71
2021/04/23 05:21:52;;;;;;;20.35;15.55;;;13.20;71.90;;;;;;5021421;28;20057;-71
2021/04/23 05:24:18;;;;;;;21.65;15.30;;;13.20;71.50;;;;;;5034277;28;20124;-71
2021/04/23 05:26:44;;;;;;;21.58;15.90;;;13.20;71.80;;;;;;5031525;28;20038;-68
2021/04/23 05:29:10;;;;;;;23.58;15.77;;;13.20;71.70;;;;;;5033655;28;20109;-71
2021/04/23 05:31:35;;;;;;;22.10;16.13;;;13.40;71.80;;;;;;5034679;28;20037;-69
2021/04/23 05:34:02;;;;;;;25.05;15.75;;;13.40;71.50;;;;;;5034247;28;20032;-69
2021/04/23 05:36:27;;;;;;;20.75;16.35;;;13.50;71.40;;;;;;5023998;28;20376;-69
2021/04/23 05:38:54;;;;;;;18.92;15.50;;;13.50;70.90;;;;;;5014405;28;20084;-66
2021/04/23 05:41:20;;;;;;;20.08;15.50;;;13.60;70.80;;;;;;5014734;28;20387;-68
2021/04/23 05:43:47;;;;;;;23.67;15.77;;;13.70;70.00;;;;;;5014392;28;20026;-68
2021/04/23 05:46:13;;;;;;;18.17;15.20;;;13.80;69.50;;;;;;5018125;28;20048;-70
2021/04/23 05:48:39;;;;;;;21.77;14.80;;;14.00;69.00;;;;;;5025581;28;20494;-68
2021/04/23 05:51:05;;;;;;;16.77;14.55;;;14.20;68.10;;;;;;5013962;28;20030;-68
2021/04/23 05:53:31;;;;;;;24.45;14.60;;;14.30;67.60;;;;;;5014069;28;20053;-68
2021/04/23 05:55:58;;;;;;;20.02;14.80;;;14.40;67.40;;;;;;5014134;28;20080;-67
2021/04/23 05:58:24;;;;;;;17.95;14.93;;;14.50;67.10;;;;;;5032742;28;20025;-68
2021/04/23 06:00:50;;;;;;;15.57;13.13;;;14.60;67.20;;;;;;5032825;28;20128;-68
2021/04/23 06:03:16;;;;;;;20.52;13.63;;;14.50;66.80;;;;;;5033796;28;20110;-69
2021/04/23 06:05:42;;;;;;;17.63;13.23;;;14.70;67.10;;;;;;5030755;28;20068;-66
2021/04/23 06:08:10;;;;;;;21.30;13.20;;;14.80;66.70;;;;;;5014639;28;20018;-74
2021/04/23 06:10:37;;;;;;;19.85;12.57;;;14.90;66.30;;;;;;5028527;28;20029;-63
2021/04/23 06:13:03;;;;;;;18.23;12.80;;;15.10;66.10;;;;;;5033566;28;20021;-63
2021/04/23 06:15:31;;;;;;;13.88;11.70;;;15.10;65.40;;;;;;5033512;28;20045;-65
2021/04/23 06:17:57;;;;;;;17.77;13.15;;;15.20;65.40;;;;;;5020282;28;20032;-68
2021/04/23 06:20:29;;;;;;;16.83;11.30;;;15.40;64.90;;;;;;5028665;28;20056;-84
2021/04/23 06:22:56;;;;;;;16.45;11.65;;;15.60;65.20;;;;;;5033425;28;20049;-62
2021/04/23 06:25:23;;;;;;;16.17;11.23;;;15.70;63.80;;;;;;5026810;28;20513;-68
2021/04/23 06:27:51;;;;;;;15.27;11.15;;;15.90;63.90;;;;;;5023189;28;20117;-68
2021/04/23 06:30:39;;;;;;;15.70;11.73;;;16.00;63.60;;;;;;5032537;28;20036;-66
2021/04/23 06:33:13;;;;;;;13.60;10.77;;;16.20;63.30;;;;;;5032354;28;20026;-64
2021/04/23 06:35:39;;;;;;;13.50;10.48;;;16.30;62.70;;;;;;5032736;28;20029;-67
2021/04/23 06:38:05;;;;;;;14.02;10.27;;;16.40;62.20;;;;;;5032391;28;20062;-70
2021/04/23 06:40:31;;;;;;;14.93;10.80;;;16.50;62.30;;;;;;5033402;28;20041;-67
2021/04/23 06:42:58;;;;;;;16.05;10.30;;;16.50;61.80;;;;;;5032967;28;20040;-64
2021/04/23 06:45:24;;;;;;;16.10;10.77;;;16.60;61.80;;;;;;5031896;28;20029;-70
2021/04/23 06:47:50;;;;;;;14.60;10.70;;;16.70;62.00;;;;;;5026069;28;20018;-67
2021/04/23 06:50:20;;;;;;;16.15;10.55;;;16.80;61.60;;;;;;5022342;28;20087;-65
2021/04/23 06:52:46;;;;;;;14.85;10.70;;;16.80;61.80;;;;;;5033247;28;20029;-66
2021/04/23 06:55:14;;;;;;;15.02;10.57;;;16.90;60.90;;;;;;5033569;28;20044;-66
2021/04/23 06:57:42;;;;;;;15.18;10.52;;;17.00;61.10;;;;;;5030661;28;20033;-67
2021/04/23 07:00:29;;;;;;;14.23;10.27;;;17.20;61.30;;;;;;5030663;28;20097;-67
2021/04/23 07:02:56;;;;;;;11.73;9.70;;;17.40;59.90;;;;;;5025776;28;20040;-67
2021/04/23 07:05:23;;;;;;;15.18;10.27;;;17.50;59.60;;;;;;5033113;28;20051;-68
2021/04/23 07:07:49;;;;;;;13.07;9.50;;;17.40;59.40;;;;;;5032270;28;20095;-65
2021/04/23 07:10:18;;;;;;;17.80;9.48;;;17.30;59.50;;;;;;5032777;28;20546;-64
2021/04/23 07:12:45;;;;;;;14.65;9.63;;;17.40;59.60;;;;;;5022958;28;20064;-65
2021/04/23 07:15:18;;;;;;;15.40;8.85;;;17.60;59.60;;;;;;5032313;28;20117;-65
2021/04/23 07:17:44;;;;;;;12.35;9.73;;;17.60;59.20;;;;;;5032847;28;20364;-67
2021/04/23 07:20:11;;;;;;;16.25;10.35;;;17.70;59.20;;;;;;5027352;28;20037;-68
2021/04/23 07:22:38;;;;;;;13.27;10.02;;;17.80;59.20;;;;;;5026915;28;20517;-68
2021/04/23 07:25:05;;;;;;;13.60;10.20;;;17.90;58.60;;;;;;5017073;28;20022;-68
2021/04/23 07:27:35;;;;;;;13.65;10.38;;;18.00;58.90;;;;;;5028788;28;20025;-67
2021/04/23 07:30:04;;;;;;;12.55;10.40;;;18.10;58.60;;;;;;5036918;28;20023;-69
2021/04/23 07:32:30;;;;;;;14.63;11.02;;;18.10;58.50;;;;;;5033538;28;20030;-69
2021/04/23 07:34:56;;;;;;;14.95;11.07;;;18.00;58.20;;;;;;5016665;28;20029;-69
2021/04/23 07:37:22;;;;;;;20.33;10.85;;;18.10;58.40;;;;;;5016550;28;20129;-69
2021/04/23 07:39:47;;;;;;;17.10;11.27;;;18.10;57.90;;;;;;5016792;28;20033;-68
2021/04/23 07:42:13;;;;;;;15.10;10.30;;;18.20;57.90;;;;;;5016551;28;20030;-70
2021/04/23 07:44:39;;;;;;;13.30;9.57;;;18.10;57.90;;;;;;5020682;28;20022;-68
2021/04/23 07:47:05;;;;;;;14.18;9.68;;;18.20;57.90;;;;;;5016613;28;20498;-70
2021/04/23 07:49:30;;;;;;;12.02;8.77;;;18.30;58.00;;;;;;5016869;28;20113;-68
2021/04/23 07:51:56;;;;;;;15.02;9.40;;;18.30;57.50;;;;;;5027012;28;20558;-67
2021/04/23 07:54:22;;;;;;;11.38;9.43;;;18.40;57.50;;;;;;5017911;28;20033;-69
2021/04/23 07:56:48;;;;;;;14.48;12.07;;;18.40;57.30;;;;;;5035643;28;20108;-73
2021/04/23 07:59:13;;;;;;;13.90;9.75;;;18.20;57.00;;;;;;5028332;28;20033;-68
2021/04/23 08:01:39;;;;;;;14.68;9.73;;;18.10;57.20;;;;;;5034194;28;20033;-67
2021/04/23 08:04:05;;;;;;;14.25;8.48;;;18.10;57.30;;;;;;5019866;28;20156;-69
2021/04/23 08:06:31;;;;;;;11.88;8.40;;;18.10;57.10;;;;;;5020381;28;20418;-67
2021/04/23 08:08:58;;;;;;;10.63;7.68;;;18.10;57.30;;;;;;5022269;28;20522;-68
2021/04/23 08:11:24;;;;;;;12.45;7.63;;;18.10;56.80;;;;;;5015966;28;20034;-69
2021/04/23 08:13:50;;;;;;;13.20;8.23;;;18.10;57.10;;;;;;5014849;28;20116;-72
2021/04/23 08:16:16;;;;;;;12.15;7.25;;;18.20;57.00;;;;;;5015991;28;20026;-68
2021/04/23 08:18:42;;;;;;;9.35;6.30;;;18.20;56.60;;;;;;5015801;28;20468;-71
2021/04/23 08:21:08;;;;;;;13.43;6.10;;;18.10;56.20;;;;;;5030333;28;20037;-68
2021/04/23 08:23:35;;;;;;;8.32;5.78;;;18.10;56.20;;;;;;5034929;28;20057;-69
2021/04/23 08:26:03;;;;;;;9.75;5.50;;;18.10;56.00;;;;;;5032054;28;20033;-69
2021/04/23 08:28:32;;;;;;;10.00;5.82;;;18.10;56.00;;;;;;5033200;28;20022;-71
2021/04/23 08:30:58;;;;;;;10.30;5.88;;;18.10;56.20;;;;;;5030898;28;20030;-67
2021/04/23 08:33:24;;;;;;;7.85;4.90;;;18.20;56.20;;;;;;5033928;28;20037;-67
2021/04/23 08:35:50;;;;;;;7.25;5.20;;;18.10;55.80;;;;;;5033223;28;20041;-69
2021/04/23 08:38:16;;;;;;;8.38;4.90;;;18.10;56.00;;;;;;5035487;28;20173;-66
2021/04/23 08:40:42;;;;;;;6.30;3.40;;;18.20;55.80;;;;;;5034749;28;20034;-66
2021/04/23 08:43:08;;;;;;;7.65;4.72;;;18.20;56.00;;;;;;5034447;28;20048;-66
2021/04/23 08:45:33;;;;;;;8.60;4.57;;;18.20;55.80;;;;;;5025581;28;20125;-66
2021/04/23 08:48:00;;;;;;;9.27;4.93;;;18.20;55.30;;;;;;5015113;28;20097;-67
2021/04/23 08:50:26;;;;;;;6.57;4.07;;;18.20;55.50;;;;;;5026229;28;20577;-66
2021/04/23 08:52:53;;;;;;;7.13;3.92;;;18.20;55.20;;;;;;5034684;28;20017;-68
2021/04/23 08:55:23;;;;;;;7.82;5.03;;;18.20;55.50;;;;;;5034077;28;20386;-68
2021/04/23 08:57:49;;;;;;;6.82;4.53;;;18.30;55.70;;;;;;5034196;28;20026;-68
2021/04/23 09:00:16;;;;;;;7.45;5.07;;;18.40;55.60;;;;;;5031931;28;20099;-68
2021/04/23 09:02:42;;;;;;;9.30;4.90;;;18.40;55.40;;;;;;5020692;28;20044;-68
2021/04/23 09:05:09;;;;;;;6.45;3.95;;;18.50;55.70;;;;;;5025680;28;20083;-73
2021/04/23 09:07:34;;;;;;;7.20;4.82;;;18.60;55.60;;;;;;5027572;28;20098;-69
2021/04/23 09:10:09;;;;;;;7.35;4.30;;;18.60;55.60;;;;;;5034095;28;20386;-66
2021/04/23 09:12:35;;;;;;;9.63;3.92;;;18.70;54.80;;;;;;5032618;28;20098;-64
2021/04/23 09:15:02;;;;;;;8.50;3.90;;;18.60;55.00;;;;;;5033669;28;20075;-66
2021/04/23 09:17:29;;;;;;;6.57;3.70;;;18.60;54.80;;;;;;5023519;28;20511;-67
2021/04/23 09:19:56;;;;;;;8.27;4.28;;;18.60;54.80;;;;;;5033021;28;20041;-66
2021/04/23 09:22:30;;;;;;;5.35;3.08;;;18.60;54.90;;;;;;5032780;28;20055;-67
2021/04/23 09:25:00;;;;;;;7.25;3.58;;;18.70;54.50;;;;;;5034121;28;20029;-66
2021/04/23 09:27:33;;;;;;;6.00;3.10;;;18.60;54.40;;;;;;5033117;28;20138;-67
2021/04/23 09:30:06;;;;;;;5.93;3.50;;;18.70;54.50;;;;;;5033988;28;20033;-68
2021/04/23 09:32:40;;;;;;;6.55;4.10;;;18.70;54.80;;;;;;5033348;28;20029;-68
2021/04/23 09:35:15;;;;;;;6.28;3.30;;;18.90;54.70;;;;;;5034143;28;20036;-67
2021/04/23 09:37:46;;;;;;;6.95;2.92;;;19.00;54.70;;;;;;5019571;28;20017;-67
2021/04/23 09:40:13;;;;;;;7.47;2.58;;;19.00;53.90;;;;;;5033670;28;20478;-67
2021/04/23 09:42:52;;;;;;;4.53;2.30;;;19.00;53.40;;;;;;5033058;28;20032;-68
2021/04/23 09:45:28;;;;;;;3.58;2.10;;;19.00;52.90;;;;;;5028358;28;20033;-76
2021/04/23 09:47:56;;;;;;;4.72;2.88;;;19.00;52.70;;;;;;5032983;28;20047;-68
2021/04/23 09:50:33;;;;;;;5.18;2.20;;;19.10;53.20;;;;;;5032599;28;20356;-72
2021/04/23 09:53:00;;;;;;;5.85;2.50;;;19.20;52.90;;;;;;5032174;28;20040;-70
2021/04/23 09:55:32;;;;;;;4.78;2.30;;;19.20;52.80;;;;;;5032025;28;20025;-66
2021/04/23 09:58:07;;;;;;;6.85;2.92;;;19.20;52.10;;;;;;5033568;28;20410;-68
2021/04/23 10:00:36;;;;;;;9.95;3.55;;;19.30;52.10;;;;;;5033317;28;20037;-68
2021/04/23 10:03:03;;;;;;;5.90;3.00;;;19.40;52.10;;;;;;5019308;28;20025;-67
2021/04/23 10:05:39;;;;;;;4.78;2.60;;;19.50;51.70;;;;;;5031632;28;20025;-67
2021/04/23 10:08:09;;;;;;;4.90;2.83;;;19.60;51.20;;;;;;5030383;28;20100;-68
2021/04/23 10:10:36;;;;;;;5.43;2.70;;;19.60;51.00;;;;;;5034174;28;20340;-68
2021/04/23 10:13:06;;;;;;;5.78;2.70;;;19.70;51.40;;;;;;5033308;28;20028;-69
2021/04/23 10:15:34;;;;;;;5.47;3.25;;;19.80;51.50;;;;;;5025703;28;20036;-69
2021/04/23 10:18:05;;;;;;;9.68;3.42;;;19.90;51.10;;;;;;5033176;28;20492;-66
2021/04/23 10:20:35;;;;;;;6.32;3.20;;;20.00;51.20;;;;;;5032493;28;20037;-68
2021/04/23 10:23:04;;;;;;;7.80;3.35;;;20.10;51.00;;;;;;5033082;28;20041;-72
2021/04/23 10:25:32;;;;;;;8.25;3.28;;;20.10;50.80;;;;;;5021445;28;20017;-69
2021/04/23 10:27:59;;;;;;;7.43;2.78;;;20.20;50.60;;;;;;5033189;28;20021;-70
2021/04/23 10:30:28;;;;;;;7.10;3.10;;;20.30;51.10;;;;;;5032726;28;20394;-72
2021/04/23 10:33:00;;;;;;;4.45;2.40;;;20.30;50.50;;;;;;5032808;28;20028;-72
2021/04/23 10:35:26;;;;;;;5.88;2.78;;;20.40;48.70;;;;;;5024700;28;20035;-71
2021/04/23 10:37:53;;;;;;;4.90;2.30;;;20.40;49.60;;;;;;5032593;28;20025;-67
2021/04/23 10:40:22;;;;;;;5.00;2.92;;;20.40;49.10;;;;;;5022400;28;20042;-65
2021/04/23 10:42:53;;;;;;;3.92;2.45;;;20.50;49.30;;;;;;5025198;28;20561;-68
2021/04/23 10:45:25;;;;;;;4.78;2.42;;;20.60;48.50;;;;;;5027015;28;20405;-68
2021/04/23 10:47:53;;;;;;;5.53;2.20;;;20.70;48.30;;;;;;5013344;28;20537;-67
2021/04/23 10:50:22;;;;;;;4.80;2.10;;;20.80;47.90;;;;;;5024704;28;20088;-73
2021/04/23 10:52:59;;;;;;;4.32;2.00;;;20.80;47.10;;;;;;5012977;28;20470;-74
2021/04/23 10:55:40;;;;;;;4.28;1.90;;;20.80;47.10;;;;;;5013124;28;20317;-66
2021/04/23 10:58:07;;;;;;;3.75;2.15;;;20.90;46.50;;;;;;5012857;28;20057;-69
2021/04/23 11:00:48;;;;;;;5.35;1.92;;;20.90;46.20;;;;;;5013031;28;20034;-70
2021/04/23 11:03:33;;;;;;;3.17;1.95;;;21.00;45.80;;;;;;5013200;28;20025;-68
2021/04/23 11:06:25;;;;;;;5.15;1.85;;;21.00;44.40;;;;;;5012407;28;20467;-68
2021/04/23 11:09:00;;;;;;;4.15;2.22;;;21.10;45.30;;;;;;5030004;28;20324;-71
2021/04/23 11:11:33;;;;;;;4.70;2.03;;;21.20;45.50;;;;;;5020330;28;20073;-72
2021/04/23 11:14:20;;;;;;;4.95;1.70;;;21.30;44.70;;;;;;5032830;28;20378;-68
2021/04/23 11:16:46;;;;;;;6.28;1.67;;;21.40;43.90;;;;;;5015589;28;20030;-72
2021/04/23 11:19:19;;;;;;;5.20;2.20;;;21.50;44.50;;;;;;5013268;28;20472;-68
2021/04/23 11:21:49;;;;;;;3.30;2.08;;;21.60;44.50;;;;;;5022621;28;20038;-66
2021/04/23 11:24:17;;;;;;;4.70;2.10;;;21.70;43.60;;;;;;5032614;28;20111;-66
2021/04/23 11:27:03;;;;;;;3.92;2.00;;;21.80;43.70;;;;;;5016910;28;20033;-69
2021/04/23 11:29:37;;;;;;;5.70;2.10;;;21.90;42.80;;;;;;5012488;28;20030;-70
2021/04/23 11:32:12;;;;;;;4.10;2.20;;;21.90;42.40;;;;;;5019873;28;20029;-68
2021/04/23 11:34:46;;;;;;;3.33;2.00;;;21.80;43.40;;;;;;5016955;28;20120;-65
2021/04/23 11:37:18;;;;;;;3.90;2.10;;;21.90;42.60;;;;;;5031872;28;20026;-66
2021/04/23 11:39:46;;;;;;;3.60;2.00;;;22.00;42.50;;;;;;5031000;28;20154;-66
2021/04/23 11:42:22;;;;;;;3.30;1.90;;;22.20;43.40;;;;;;5031568;28;20175;-66
2021/04/23 11:44:49;;;;;;;4.00;2.00;;;22.40;43.10;;;;;;5030411;28;20032;-65
2021/04/23 11:47:29;;;;;;;4.68;2.40;;;22.50;42.90;;;;;;5020095;28;20030;-64
2021/04/23 11:50:19;;;;;;;4.70;2.28;;;22.60;42.90;;;;;;5030456;28;20041;-68
2021/04/23 11:52:50;;;;;;;5.72;2.10;;;22.70;41.30;;;;;;5032152;28;20060;-66
2021/04/23 11:55:19;;;;;;;3.80;1.98;;;22.80;42.40;;;;;;5031688;28;20029;-68
2021/04/23 11:57:47;;;;;;;3.58;1.88;;;22.80;40.90;;;;;;5031917;28;20041;-69
2021/04/23 12:00:17;;;;;;;3.65;1.98;;;22.90;42.00;;;;;;5019656;28;20029;-67
2021/04/23 12:02:52;;;;;;;9.73;2.83;;;22.90;41.30;;;;;;5019438;28;20030;-71
2021/04/23 12:05:37;;;;;;;7.95;1.90;;;22.90;40.20;;;;;;5014490;28;20018;-70
2021/04/23 12:08:08;;;;;;;6.00;2.05;;;23.00;41.70;;;;;;5032907;28;20489;-70
2021/04/23 12:10:37;;;;;;;4.85;2.00;;;23.10;41.80;;;;;;5020607;28;20124;-71
2021/04/23 12:13:11;;;;;;;5.60;2.50;;;23.20;42.20;;;;;;5014305;28;20057;-69
2021/04/23 12:15:38;;;;;;;5.63;2.40;;;23.30;42.50;;;;;;5016798;28;20096;-66
2021/04/23 12:18:05;;;;;;;10.88;2.30;;;23.30;43.10;;;;;;5015063;28;20022;-66
2021/04/23 12:20:44;;;;;;;5.28;2.10;;;23.30;43.30;;;;;;5026729;28;20106;-72
2021/04/23 12:23:15;;;;;;;5.50;3.15;;;23.30;42.40;;;;;;5016530;28;20491;-65
2021/04/23 12:25:47;;;;;;;8.05;2.70;;;23.30;45.70;;;;;;5015368;28;20022;-65
2021/04/23 12:28:23;;;;;;;8.30;2.92;;;23.30;46.30;;;;;;5034970;28;20017;-69
2021/04/23 12:31:00;;;;;;;8.93;3.13;;;23.20;46.90;;;;;;5034648;28;20471;-68
2021/04/23 12:33:42;;;;;;;6.57;3.05;;;23.20;46.60;;;;;;5035042;28;20014;-69
2021/04/23 12:36:21;;;;;;;8.20;2.85;;;23.10;46.90;;;;;;5034009;28;20048;-66
2021/04/23 12:38:57;;;;;;;5.45;3.08;;;23.20;46.80;;;;;;5034964;28;20052;-73
2021/04/23 12:41:30;;;;;;;8.52;2.70;;;23.30;47.80;;;;;;5021888;28;20041;-65